LFRD/DNR METAR and TAF weather

Enter ICAO airport designator
Station Type Date Time Source
LFRD METAR 2018/12/15 21:00 UTC NOAA

LFRD 152100Z AUTO 23008KT 9999 FEW027 07/06 Q1009 NOSIG


Station Type Date Time Source
LFRD Decoded METAR 2018/12/15 21:00 UTC NOAA

Dinard, France (LFRD) 48-35N 002-04W 60M
Dec 15, 2018 - 04:00 PM EST / 2018.12.15 2100 UTC
Wind: from the SW (230 degrees) at 9 MPH (8 KT):0
Visibility: greater than 7 mile(s):0
Sky conditions: mostly clear
Temperature: 44 F (7 C)
Dew Point: 42 F (6 C)
Relative Humidity: 93%
Pressure (altimeter): 29.80 in. Hg (1009 hPa)
ob: LFRD 152100Z AUTO 23008KT 9999 FEW027 07/06 Q1009 NOSIG
cycle: 21

Station Type Date Time Source
LFRD TAF 2018/12/15 19:26 UTC NOAA

TAF
AMD LFRD 151921Z 1519/1618 26010KT 9999 BKN025 PROB30
TEMPO 1600/1606 4000 SHRA SCT030TCU
BECMG 1608/1610 18008KT
TEMPO 1611/1617 4000 SHRA BKN025CB PROB30
TEMPO 1613/1617 2000 TSRA BKN025CB


Example: see airport list